sensor_id;sensor_type;location;lat;lon;timestamp;temperature;humidity
4763;DHT22;2395;50.738;7.122;2022-08-19T00:00:36;20.70;99.90
4763;DHT22;2395;50.738;7.122;2022-08-19T00:03:04;20.70;99.90
4763;DHT22;2395;50.738;7.122;2022-08-19T00:05:33;20.70;99.90
4763;DHT22;2395;50.738;7.122;2022-08-19T00:08:01;20.60;99.90
4763;DHT22;2395;50.738;7.122;2022-08-19T00:10:28;20.60;99.90
4763;DHT22;2395;50.738;7.122;2022-08-19T00:12:55;20.60;99.90
4763;DHT22;2395;50.738;7.122;2022-08-19T00:15:22;20.60;99.90
4763;DHT22;2395;50.738;7.122;2022-08-19T00:17:49;20.60;99.90
4763;DHT22;2395;50.738;7.122;2022-08-19T00:20:18;20.60;99.90
4763;DHT22;2395;50.738;7.122;2022-08-19T00:22:48;20.60;99.90
4763;DHT22;2395;50.738;7.122;2022-08-19T00:25:16;20.60;99.90
4763;DHT22;2395;50.738;7.122;2022-08-19T00:27:43;20.50;99.90
4763;DHT22;2395;50.738;7.122;2022-08-19T00:30:11;20.60;99.90
4763;DHT22;2395;50.738;7.122;2022-08-19T00:32:38;20.50;99.90
4763;DHT22;2395;50.738;7.122;2022-08-19T00:35:07;20.50;99.90
4763;DHT22;2395;50.738;7.122;2022-08-19T00:37:35;20.60;99.90
4763;DHT22;2395;50.738;7.122;2022-08-19T00:40:07;20.60;99.90
4763;DHT22;2395;50.738;7.122;2022-08-19T00:42:34;20.60;99.90
4763;DHT22;2395;50.738;7.122;2022-08-19T00:45:02;20.70;99.90
4763;DHT22;2395;50.738;7.122;2022-08-19T00:47:37;20.60;99.90
4763;DHT22;2395;50.738;7.122;2022-08-19T00:50:05;20.60;99.90
4763;DHT22;2395;50.738;7.122;2022-08-19T00:52:38;20.60;99.90
4763;DHT22;2395;50.738;7.122;2022-08-19T00:55:14;20.60;99.90
4763;DHT22;2395;50.738;7.122;2022-08-19T00:57:49;20.50;99.90
4763;DHT22;2395;50.738;7.122;2022-08-19T01:00:24;20.50;99.90
4763;DHT22;2395;50.738;7.122;2022-08-19T01:02:52;20.40;99.90
4763;DHT22;2395;50.738;7.122;2022-08-19T01:05:22;20.30;99.90
4763;DHT22;2395;50.738;7.122;2022-08-19T01:07:53;20.30;99.90
4763;DHT22;2395;50.738;7.122;2022-08-19T01:10:25;20.20;99.90
4763;DHT22;2395;50.738;7.122;2022-08-19T01:12:55;20.10;99.90
4763;DHT22;2395;50.738;7.122;2022-08-19T01:15:27;20.00;99.90
4763;DHT22;2395;50.738;7.122;2022-08-19T01:18:00;19.90;99.90
4763;DHT22;2395;50.738;7.122;2022-08-19T01:20:29;20.00;99.90
4763;DHT22;2395;50.738;7.122;2022-08-19T01:22:58;20.00;99.90
4763;DHT22;2395;50.738;7.122;2022-08-19T01:25:29;20.00;99.90
4763;DHT22;2395;50.738;7.122;2022-08-19T01:27:59;20.00;99.90
4763;DHT22;2395;50.738;7.122;2022-08-19T01:30:28;20.00;99.90
4763;DHT22;2395;50.738;7.122;2022-08-19T01:32:57;20.10;99.90
4763;DHT22;2395;50.738;7.122;2022-08-19T01:35:27;20.10;99.90
4763;DHT22;2395;50.738;7.122;2022-08-19T01:38:00;20.00;99.90
4763;DHT22;2395;50.738;7.122;2022-08-19T01:40:35;20.00;99.90
4763;DHT22;2395;50.738;7.122;2022-08-19T01:43:05;20.00;99.90
4763;DHT22;2395;50.738;7.122;2022-08-19T01:45:34;20.00;99.90
4763;DHT22;2395;50.738;7.122;2022-08-19T01:48:03;19.90;99.90
4763;DHT22;2395;50.738;7.122;2022-08-19T01:50:31;19.90;99.90
4763;DHT22;2395;50.738;7.122;2022-08-19T01:53:02;19.90;99.90
4763;DHT22;2395;50.738;7.122;2022-08-19T01:55:31;19.80;99.90
4763;DHT22;2395;50.738;7.122;2022-08-19T01:58:00;19.70;99.90
4763;DHT22;2395;50.738;7.122;2022-08-19T02:00:32;19.80;99.90
4763;DHT22;2395;50.738;7.122;2022-08-19T02:02:59;19.70;99.90
4763;DHT22;2395;50.738;7.122;2022-08-19T02:05:27;19.70;99.90
4763;DHT22;2395;50.738;7.122;2022-08-19T02:07:55;19.70;99.90
4763;DHT22;2395;50.738;7.122;2022-08-19T02:10:24;19.60;99.90
4763;DHT22;2395;50.738;7.122;2022-08-19T02:12:51;19.60;99.90
4763;DHT22;2395;50.738;7.122;2022-08-19T02:15:19;19.60;99.90
4763;DHT22;2395;50.738;7.122;2022-08-19T02:17:47;19.50;99.90
4763;DHT22;2395;50.738;7.122;2022-08-19T02:20:15;19.60;99.90
4763;DHT22;2395;50.738;7.122;2022-08-19T02:22:43;19.60;99.90
4763;DHT22;2395;50.738;7.122;2022-08-19T02:25:12;19.70;99.90
4763;DHT22;2395;50.738;7.122;2022-08-19T02:27:42;19.60;99.90
4763;DHT22;2395;50.738;7.122;2022-08-19T02:30:16;19.70;99.90
4763;DHT22;2395;50.738;7.122;2022-08-19T02:32:44;19.70;99.90
4763;DHT22;2395;50.738;7.122;2022-08-19T02:35:12;19.60;99.90
4763;DHT22;2395;50.738;7.122;2022-08-19T02:37:41;19.60;99.90
4763;DHT22;2395;50.738;7.122;2022-08-19T02:40:26;19.40;99.90
4763;DHT22;2395;50.738;7.122;2022-08-19T02:42:54;19.50;99.90
4763;DHT22;2395;50.738;7.122;2022-08-19T02:45:22;19.50;99.90
4763;DHT22;2395;50.738;7.122;2022-08-19T02:47:49;19.50;99.90
4763;DHT22;2395;50.738;7.122;2022-08-19T02:50:16;19.40;99.90
4763;DHT22;2395;50.738;7.122;2022-08-19T02:52:44;19.40;99.90
4763;DHT22;2395;50.738;7.122;2022-08-19T02:55:11;19.40;99.90
4763;DHT22;2395;50.738;7.122;2022-08-19T02:57:38;19.40;99.90
4763;DHT22;2395;50.738;7.122;2022-08-19T03:00:08;19.30;99.90
4763;DHT22;2395;50.738;7.122;2022-08-19T03:02:37;19.30;99.90
4763;DHT22;2395;50.738;7.122;2022-08-19T03:05:06;19.20;99.90
4763;DHT22;2395;50.738;7.122;2022-08-19T03:07:34;19.20;99.90
4763;DHT22;2395;50.738;7.122;2022-08-19T03:10:02;19.30;99.90
4763;DHT22;2395;50.738;7.122;2022-08-19T03:12:29;19.30;99.90
4763;DHT22;2395;50.738;7.122;2022-08-19T03:14:56;19.20;99.90
4763;DHT22;2395;50.738;7.122;2022-08-19T03:17:25;19.30;99.90
4763;DHT22;2395;50.738;7.122;2022-08-19T03:19:52;19.20;99.90
4763;DHT22;2395;50.738;7.122;2022-08-19T03:22:19;19.20;99.90
4763;DHT22;2395;50.738;7.122;2022-08-19T03:24:46;19.10;99.90
4763;DHT22;2395;50.738;7.122;2022-08-19T03:27:12;19.20;99.90
4763;DHT22;2395;50.738;7.122;2022-08-19T03:29:40;19.20;99.90
4763;DHT22;2395;50.738;7.122;2022-08-19T03:32:07;19.20;99.90
4763;DHT22;2395;50.738;7.122;2022-08-19T03:34:37;19.30;99.90
4763;DHT22;2395;50.738;7.122;2022-08-19T03:37:06;19.30;99.90
4763;DHT22;2395;50.738;7.122;2022-08-19T03:39:37;19.30;99.90
4763;DHT22;2395;50.738;7.122;2022-08-19T03:42:05;19.40;99.90
4763;DHT22;2395;50.738;7.122;2022-08-19T03:44:32;19.40;99.90
4763;DHT22;2395;50.738;7.122;2022-08-19T03:47:02;19.40;99.90
4763;DHT22;2395;50.738;7.122;2022-08-19T03:49:30;19.30;99.90
4763;DHT22;2395;50.738;7.122;2022-08-19T03:52:02;19.30;99.90
4763;DHT22;2395;50.738;7.122;2022-08-19T03:54:32;19.30;99.90
4763;DHT22;2395;50.738;7.122;2022-08-19T03:57:00;19.20;99.90
4763;DHT22;2395;50.738;7.122;2022-08-19T03:59:30;19.20;99.90
4763;DHT22;2395;50.738;7.122;2022-08-19T04:02:00;19.20;99.90
4763;DHT22;2395;50.738;7.122;2022-08-19T04:04:29;19.20;99.90
4763;DHT22;2395;50.738;7.122;2022-08-19T04:06:56;19.20;99.90
4763;DHT22;2395;50.738;7.122;2022-08-19T04:09:25;19.10;99.90
4763;DHT22;2395;50.738;7.122;2022-08-19T04:11:54;19.20;99.90
4763;DHT22;2395;50.738;7.122;2022-08-19T04:14:24;19.50;99.90
4763;DHT22;2395;50.738;7.122;2022-08-19T04:16:54;19.50;99.90
4763;DHT22;2395;50.738;7.122;2022-08-19T04:19:21;19.50;99.90
4763;DHT22;2395;50.738;7.122;2022-08-19T04:21:51;19.70;99.90
4763;DHT22;2395;50.738;7.122;2022-08-19T04:24:20;19.70;99.90
4763;DHT22;2395;50.738;7.122;2022-08-19T04:26:50;19.50;99.90
4763;DHT22;2395;50.738;7.122;2022-08-19T04:29:19;19.60;99.90
4763;DHT22;2395;50.738;7.122;2022-08-19T04:31:51;19.50;99.90
4763;DHT22;2395;50.738;7.122;2022-08-19T04:34:21;19.50;99.90
4763;DHT22;2395;50.738;7.122;2022-08-19T04:36:51;19.90;99.90
4763;DHT22;2395;50.738;7.122;2022-08-19T04:39:21;20.10;99.90
4763;DHT22;2395;50.738;7.122;2022-08-19T04:42:11;20.30;99.90
4763;DHT22;2395;50.738;7.122;2022-08-19T04:44:56;20.70;99.90
4763;DHT22;2395;50.738;7.122;2022-08-19T04:47:24;20.60;99.90
4763;DHT22;2395;50.738;7.122;2022-08-19T04:49:51;20.60;99.90
4763;DHT22;2395;50.738;7.122;2022-08-19T04:52:18;20.50;99.90
4763;DHT22;2395;50.738;7.122;2022-08-19T04:54:45;20.50;99.90
4763;DHT22;2395;50.738;7.122;2022-08-19T04:57:13;20.30;99.90
4763;DHT22;2395;50.738;7.122;2022-08-19T04:59:40;20.00;99.90
4763;DHT22;2395;50.738;7.122;2022-08-19T05:02:08;19.80;99.90
4763;DHT22;2395;50.738;7.122;2022-08-19T05:04:36;19.60;99.90
4763;DHT22;2395;50.738;7.122;2022-08-19T05:07:04;19.60;99.90
4763;DHT22;2395;50.738;7.122;2022-08-19T05:09:32;19.50;99.90
4763;DHT22;2395;50.738;7.122;2022-08-19T05:11:59;19.40;99.90
4763;DHT22;2395;50.738;7.122;2022-08-19T05:14:27;19.30;99.90
4763;DHT22;2395;50.738;7.122;2022-08-19T05:16:54;19.30;99.90
4763;DHT22;2395;50.738;7.122;2022-08-19T05:19:21;19.30;99.90
4763;DHT22;2395;50.738;7.122;2022-08-19T05:22:06;19.30;99.90
4763;DHT22;2395;50.738;7.122;2022-08-19T05:24:50;19.30;99.90
4763;DHT22;2395;50.738;7.122;2022-08-19T05:27:17;19.30;99.90
4763;DHT22;2395;50.738;7.122;2022-08-19T05:29:45;19.30;99.90
4763;DHT22;2395;50.738;7.122;2022-08-19T05:32:13;19.30;99.90
4763;DHT22;2395;50.738;7.122;2022-08-19T05:34:42;19.40;99.90
4763;DHT22;2395;50.738;7.122;2022-08-19T05:37:09;19.40;99.90
4763;DHT22;2395;50.738;7.122;2022-08-19T05:39:39;19.40;99.90
4763;DHT22;2395;50.738;7.122;2022-08-19T05:42:09;19.30;99.90
4763;DHT22;2395;50.738;7.122;2022-08-19T05:44:40;19.30;99.90
4763;DHT22;2395;50.738;7.122;2022-08-19T05:47:11;19.30;99.90
4763;DHT22;2395;50.738;7.122;2022-08-19T05:49:40;19.30;99.90
4763;DHT22;2395;50.738;7.122;2022-08-19T05:52:10;19.30;99.90
4763;DHT22;2395;50.738;7.122;2022-08-19T05:54:39;19.30;99.90
4763;DHT22;2395;50.738;7.122;2022-08-19T05:57:09;19.30;99.90
4763;DHT22;2395;50.738;7.122;2022-08-19T05:59:36;19.30;99.90
4763;DHT22;2395;50.738;7.122;2022-08-19T06:02:04;19.20;99.90
4763;DHT22;2395;50.738;7.122;2022-08-19T06:04:34;19.30;99.90
4763;DHT22;2395;50.738;7.122;2022-08-19T06:07:01;19.40;99.90
4763;DHT22;2395;50.738;7.122;2022-08-19T06:09:29;19.40;99.90
4763;DHT22;2395;50.738;7.122;2022-08-19T06:11:57;19.40;99.90
4763;DHT22;2395;50.738;7.122;2022-08-19T06:14:28;19.40;99.90
4763;DHT22;2395;50.738;7.122;2022-08-19T06:16:57;19.40;99.90
4763;DHT22;2395;50.738;7.122;2022-08-19T06:19:27;19.40;99.90
4763;DHT22;2395;50.738;7.122;2022-08-19T06:21:58;19.30;99.90
4763;DHT22;2395;50.738;7.122;2022-08-19T06:24:28;19.40;99.90
4763;DHT22;2395;50.738;7.122;2022-08-19T06:26:58;19.40;99.90
4763;DHT22;2395;50.738;7.122;2022-08-19T06:29:27;19.50;99.90
4763;DHT22;2395;50.738;7.122;2022-08-19T06:31:57;19.60;99.90
4763;DHT22;2395;50.738;7.122;2022-08-19T06:34:26;19.70;99.90
4763;DHT22;2395;50.738;7.122;2022-08-19T06:36:58;19.70;99.90
4763;DHT22;2395;50.738;7.122;2022-08-19T06:39:29;19.70;99.90
4763;DHT22;2395;50.738;7.122;2022-08-19T06:42:00;19.80;99.90
4763;DHT22;2395;50.738;7.122;2022-08-19T06:44:33;20.00;99.90
4763;DHT22;2395;50.738;7.122;2022-08-19T06:47:03;20.00;99.90
4763;DHT22;2395;50.738;7.122;2022-08-19T06:49:32;19.80;99.90
4763;DHT22;2395;50.738;7.122;2022-08-19T06:52:01;19.80;99.90
4763;DHT22;2395;50.738;7.122;2022-08-19T06:54:29;19.90;99.90
4763;DHT22;2395;50.738;7.122;2022-08-19T06:56:57;20.00;99.90
4763;DHT22;2395;50.738;7.122;2022-08-19T06:59:28;20.10;99.90
4763;DHT22;2395;50.738;7.122;2022-08-19T07:02:00;20.40;99.90
4763;DHT22;2395;50.738;7.122;2022-08-19T07:04:31;20.50;99.90
4763;DHT22;2395;50.738;7.122;2022-08-19T07:07:02;20.60;99.90
4763;DHT22;2395;50.738;7.122;2022-08-19T07:09:32;20.50;99.90
4763;DHT22;2395;50.738;7.122;2022-08-19T07:12:03;20.60;99.90
4763;DHT22;2395;50.738;7.122;2022-08-19T07:14:32;20.50;99.90
4763;DHT22;2395;50.738;7.122;2022-08-19T07:17:06;20.50;99.90
4763;DHT22;2395;50.738;7.122;2022-08-19T07:19:35;20.60;99.90
4763;DHT22;2395;50.738;7.122;2022-08-19T07:22:07;20.80;99.90
4763;DHT22;2395;50.738;7.122;2022-08-19T07:24:35;20.90;99.90
4763;DHT22;2395;50.738;7.122;2022-08-19T07:27:05;20.90;99.90
4763;DHT22;2395;50.738;7.122;2022-08-19T07:29:35;21.10;99.90
4763;DHT22;2395;50.738;7.122;2022-08-19T07:32:03;21.30;99.90
4763;DHT22;2395;50.738;7.122;2022-08-19T07:34:32;21.30;99.90
4763;DHT22;2395;50.738;7.122;2022-08-19T07:37:03;21.40;99.90
4763;DHT22;2395;50.738;7.122;2022-08-19T07:39:34;21.50;99.90
4763;DHT22;2395;50.738;7.122;2022-08-19T07:42:07;21.60;99.90
4763;DHT22;2395;50.738;7.122;2022-08-19T07:44:36;21.80;99.90
4763;DHT22;2395;50.738;7.122;2022-08-19T07:47:04;21.90;99.90
4763;DHT22;2395;50.738;7.122;2022-08-19T07:49:32;21.90;99.90
4763;DHT22;2395;50.738;7.122;2022-08-19T07:52:03;22.00;99.90
4763;DHT22;2395;50.738;7.122;2022-08-19T07:54:39;22.10;99.90
4763;DHT22;2395;50.738;7.122;2022-08-19T07:57:07;22.30;99.90
4763;DHT22;2395;50.738;7.122;2022-08-19T07:59:35;22.30;99.90
4763;DHT22;2395;50.738;7.122;2022-08-19T08:02:02;22.60;99.90
4763;DHT22;2395;50.738;7.122;2022-08-19T08:04:31;22.50;99.90
4763;DHT22;2395;50.738;7.122;2022-08-19T08:07:15;22.50;99.90
4763;DHT22;2395;50.738;7.122;2022-08-19T08:10:03;22.60;99.90
4763;DHT22;2395;50.738;7.122;2022-08-19T08:12:37;22.50;99.90
4763;DHT22;2395;50.738;7.122;2022-08-19T08:15:11;22.40;99.90
4763;DHT22;2395;50.738;7.122;2022-08-19T08:17:43;22.60;99.90
4763;DHT22;2395;50.738;7.122;2022-08-19T08:20:10;22.50;99.90
4763;DHT22;2395;50.738;7.122;2022-08-19T08:22:43;22.70;99.90
4763;DHT22;2395;50.738;7.122;2022-08-19T08:25:30;22.80;99.90
4763;DHT22;2395;50.738;7.122;2022-08-19T08:27:57;22.90;99.90
4763;DHT22;2395;50.738;7.122;2022-08-19T08:30:27;23.10;99.90
4763;DHT22;2395;50.738;7.122;2022-08-19T08:32:58;23.10;99.90
4763;DHT22;2395;50.738;7.122;2022-08-19T08:35:25;23.00;99.90
4763;DHT22;2395;50.738;7.122;2022-08-19T08:37:54;23.10;99.90
4763;DHT22;2395;50.738;7.122;2022-08-19T08:40:28;23.20;99.90
4763;DHT22;2395;50.738;7.122;2022-08-19T08:43:07;23.30;99.90
4763;DHT22;2395;50.738;7.122;2022-08-19T08:45:47;23.40;99.90
4763;DHT22;2395;50.738;7.122;2022-08-19T08:48:20;23.40;99.90
4763;DHT22;2395;50.738;7.122;2022-08-19T08:50:54;23.40;99.90
4763;DHT22;2395;50.738;7.122;2022-08-19T08:53:25;23.50;99.90
4763;DHT22;2395;50.738;7.122;2022-08-19T08:55:54;23.40;99.90
4763;DHT22;2395;50.738;7.122;2022-08-19T08:58:29;23.50;99.90
4763;DHT22;2395;50.738;7.122;2022-08-19T09:01:08;23.50;99.90
4763;DHT22;2395;50.738;7.122;2022-08-19T09:03:39;23.50;99.90
4763;DHT22;2395;50.738;7.122;2022-08-19T09:06:14;23.60;99.90
4763;DHT22;2395;50.738;7.122;2022-08-19T09:08:50;23.70;99.90
4763;DHT22;2395;50.738;7.122;2022-08-19T09:11:36;23.70;99.90
4763;DHT22;2395;50.738;7.122;2022-08-19T09:14:18;23.70;99.90
4763;DHT22;2395;50.738;7.122;2022-08-19T09:16:58;24.00;99.90
4763;DHT22;2395;50.738;7.122;2022-08-19T09:19:26;24.10;99.90
4763;DHT22;2395;50.738;7.122;2022-08-19T09:21:53;24.00;99.90
4763;DHT22;2395;50.738;7.122;2022-08-19T09:24:19;24.10;99.90
4763;DHT22;2395;50.738;7.122;2022-08-19T09:26:48;24.20;99.90
4763;DHT22;2395;50.738;7.122;2022-08-19T09:29:15;24.30;99.90
4763;DHT22;2395;50.738;7.122;2022-08-19T09:31:42;24.40;99.90
4763;DHT22;2395;50.738;7.122;2022-08-19T09:34:09;24.60;99.90
4763;DHT22;2395;50.738;7.122;2022-08-19T09:36:36;24.70;99.90
4763;DHT22;2395;50.738;7.122;2022-08-19T09:39:05;25.00;99.90
4763;DHT22;2395;50.738;7.122;2022-08-19T09:41:32;24.90;99.90
4763;DHT22;2395;50.738;7.122;2022-08-19T09:44:01;24.90;99.90
4763;DHT22;2395;50.738;7.122;2022-08-19T09:46:29;25.00;99.90
4763;DHT22;2395;50.738;7.122;2022-08-19T09:48:58;25.10;99.90
4763;DHT22;2395;50.738;7.122;2022-08-19T09:51:27;25.10;99.90
4763;DHT22;2395;50.738;7.122;2022-08-19T09:53:58;25.00;99.90
4763;DHT22;2395;50.738;7.122;2022-08-19T09:56:27;25.00;99.90
4763;DHT22;2395;50.738;7.122;2022-08-19T09:58:54;25.10;99.90
4763;DHT22;2395;50.738;7.122;2022-08-19T10:01:25;25.30;99.90
4763;DHT22;2395;50.738;7.122;2022-08-19T10:03:57;25.20;99.90
4763;DHT22;2395;50.738;7.122;2022-08-19T10:06:27;25.20;99.90
4763;DHT22;2395;50.738;7.122;2022-08-19T10:08:58;25.30;99.90
4763;DHT22;2395;50.738;7.122;2022-08-19T10:11:25;25.40;99.90
4763;DHT22;2395;50.738;7.122;2022-08-19T10:13:54;25.40;99.90
4763;DHT22;2395;50.738;7.122;2022-08-19T10:16:23;25.50;99.90
4763;DHT22;2395;50.738;7.122;2022-08-19T10:18:52;25.70;99.90
4763;DHT22;2395;50.738;7.122;2022-08-19T10:21:22;25.80;99.90
4763;DHT22;2395;50.738;7.122;2022-08-19T10:23:52;25.80;99.90
4763;DHT22;2395;50.738;7.122;2022-08-19T10:26:24;25.80;99.90
4763;DHT22;2395;50.738;7.122;2022-08-19T10:28:52;25.90;99.90
4763;DHT22;2395;50.738;7.122;2022-08-19T10:31:24;26.10;99.90
4763;DHT22;2395;50.738;7.122;2022-08-19T10:33:54;26.20;99.90
4763;DHT22;2395;50.738;7.122;2022-08-19T10:36:25;26.20;99.90
4763;DHT22;2395;50.738;7.122;2022-08-19T10:38:56;26.20;99.90
4763;DHT22;2395;50.738;7.122;2022-08-19T10:41:28;26.30;99.90
4763;DHT22;2395;50.738;7.122;2022-08-19T10:43:58;26.40;99.90
4763;DHT22;2395;50.738;7.122;2022-08-19T10:46:28;26.40;99.90
4763;DHT22;2395;50.738;7.122;2022-08-19T10:48:58;26.30;99.90
4763;DHT22;2395;50.738;7.122;2022-08-19T10:51:27;26.10;99.90
4763;DHT22;2395;50.738;7.122;2022-08-19T10:54:14;26.10;99.90
4763;DHT22;2395;50.738;7.122;2022-08-19T10:56:41;26.10;99.90
4763;DHT22;2395;50.738;7.122;2022-08-19T10:59:18;26.10;99.90
4763;DHT22;2395;50.738;7.122;2022-08-19T11:01:49;26.40;99.90
4763;DHT22;2395;50.738;7.122;2022-08-19T11:04:18;26.60;99.90
4763;DHT22;2395;50.738;7.122;2022-08-19T11:06:47;26.60;99.90
4763;DHT22;2395;50.738;7.122;2022-08-19T11:09:16;26.40;99.90
4763;DHT22;2395;50.738;7.122;2022-08-19T11:11:46;26.40;99.90
4763;DHT22;2395;50.738;7.122;2022-08-19T11:14:16;26.60;99.90
4763;DHT22;2395;50.738;7.122;2022-08-19T11:16:46;26.90;99.90
4763;DHT22;2395;50.738;7.122;2022-08-19T11:19:15;27.00;99.90
4763;DHT22;2395;50.738;7.122;2022-08-19T11:21:46;27.30;99.90
4763;DHT22;2395;50.738;7.122;2022-08-19T11:24:18;27.30;99.90
4763;DHT22;2395;50.738;7.122;2022-08-19T11:26:47;27.30;99.90
4763;DHT22;2395;50.738;7.122;2022-08-19T11:29:17;27.40;99.90
4763;DHT22;2395;50.738;7.122;2022-08-19T11:31:48;27.30;99.90
4763;DHT22;2395;50.738;7.122;2022-08-19T11:34:18;27.20;99.90
4763;DHT22;2395;50.738;7.122;2022-08-19T11:36:47;27.20;99.90
4763;DHT22;2395;50.738;7.122;2022-08-19T11:39:17;27.40;99.90
4763;DHT22;2395;50.738;7.122;2022-08-19T11:41:47;27.30;99.90
4763;DHT22;2395;50.738;7.122;2022-08-19T11:44:14;27.10;99.90
4763;DHT22;2395;50.738;7.122;2022-08-19T11:46:43;27.20;99.90
4763;DHT22;2395;50.738;7.122;2022-08-19T11:49:13;27.50;99.90
4763;DHT22;2395;50.738;7.122;2022-08-19T11:51:42;27.30;99.90
4763;DHT22;2395;50.738;7.122;2022-08-19T11:54:10;27.40;99.90
4763;DHT22;2395;50.738;7.122;2022-08-19T11:56:39;27.70;99.90
4763;DHT22;2395;50.738;7.122;2022-08-19T11:59:06;27.50;99.90
4763;DHT22;2395;50.738;7.122;2022-08-19T12:01:34;27.20;99.90
4763;DHT22;2395;50.738;7.122;2022-08-19T12:04:01;27.00;99.90
4763;DHT22;2395;50.738;7.122;2022-08-19T12:06:32;27.00;99.90
4763;DHT22;2395;50.738;7.122;2022-08-19T12:09:03;27.50;99.90
4763;DHT22;2395;50.738;7.122;2022-08-19T12:11:32;28.00;99.90
4763;DHT22;2395;50.738;7.122;2022-08-19T12:13:59;28.30;99.90
4763;DHT22;2395;50.738;7.122;2022-08-19T12:16:29;28.70;99.90
4763;DHT22;2395;50.738;7.122;2022-08-19T12:18:58;28.80;99.90
4763;DHT22;2395;50.738;7.122;2022-08-19T12:21:31;28.50;99.90
4763;DHT22;2395;50.738;7.122;2022-08-19T12:24:03;28.50;99.90
4763;DHT22;2395;50.738;7.122;2022-08-19T12:26:31;28.70;99.90
4763;DHT22;2395;50.738;7.122;2022-08-19T12:28:59;28.80;99.90
4763;DHT22;2395;50.738;7.122;2022-08-19T12:31:26;28.90;99.90
4763;DHT22;2395;50.738;7.122;2022-08-19T12:33:54;28.90;99.90
4763;DHT22;2395;50.738;7.122;2022-08-19T12:36:21;29.00;99.90
4763;DHT22;2395;50.738;7.122;2022-08-19T12:38:51;28.80;99.90
4763;DHT22;2395;50.738;7.122;2022-08-19T12:41:20;28.30;99.90
4763;DHT22;2395;50.738;7.122;2022-08-19T12:43:48;28.40;99.90
4763;DHT22;2395;50.738;7.122;2022-08-19T12:46:17;28.10;99.90
4763;DHT22;2395;50.738;7.122;2022-08-19T12:48:45;28.20;99.90
4763;DHT22;2395;50.738;7.122;2022-08-19T12:51:14;28.50;99.90
4763;DHT22;2395;50.738;7.122;2022-08-19T12:53:45;29.10;99.90
4763;DHT22;2395;50.738;7.122;2022-08-19T12:56:14;28.90;99.90
4763;DHT22;2395;50.738;7.122;2022-08-19T12:58:42;28.80;99.90
4763;DHT22;2395;50.738;7.122;2022-08-19T13:01:11;28.70;99.90
4763;DHT22;2395;50.738;7.122;2022-08-19T13:03:40;29.00;99.90
4763;DHT22;2395;50.738;7.122;2022-08-19T13:06:08;29.00;99.90
4763;DHT22;2395;50.738;7.122;2022-08-19T13:08:36;29.00;99.90
4763;DHT22;2395;50.738;7.122;2022-08-19T13:11:08;28.90;99.90
4763;DHT22;2395;50.738;7.122;2022-08-19T13:13:39;28.90;99.90
4763;DHT22;2395;50.738;7.122;2022-08-19T13:16:09;29.40;99.90
4763;DHT22;2395;50.738;7.122;2022-08-19T13:18:39;29.70;99.90
4763;DHT22;2395;50.738;7.122;2022-08-19T13:21:09;29.60;99.90
4763;DHT22;2395;50.738;7.122;2022-08-19T13:23:39;29.90;99.90
4763;DHT22;2395;50.738;7.122;2022-08-19T13:26:08;29.10;99.90
4763;DHT22;2395;50.738;7.122;2022-08-19T13:28:36;29.40;99.90
4763;DHT22;2395;50.738;7.122;2022-08-19T13:31:20;29.60;99.90
4763;DHT22;2395;50.738;7.122;2022-08-19T13:34:07;29.70;99.90
4763;DHT22;2395;50.738;7.122;2022-08-19T13:36:37;30.00;99.90
4763;DHT22;2395;50.738;7.122;2022-08-19T13:39:09;30.10;99.90
4763;DHT22;2395;50.738;7.122;2022-08-19T13:41:37;30.40;99.90
4763;DHT22;2395;50.738;7.122;2022-08-19T13:44:10;30.60;99.90
4763;DHT22;2395;50.738;7.122;2022-08-19T13:46:39;30.40;99.90
4763;DHT22;2395;50.738;7.122;2022-08-19T13:49:10;30.40;99.90
4763;DHT22;2395;50.738;7.122;2022-08-19T13:51:38;30.60;99.90
4763;DHT22;2395;50.738;7.122;2022-08-19T13:54:05;30.30;99.90
4763;DHT22;2395;50.738;7.122;2022-08-19T13:56:34;29.60;99.90
4763;DHT22;2395;50.738;7.122;2022-08-19T13:59:01;29.80;99.90
4763;DHT22;2395;50.738;7.122;2022-08-19T14:01:28;30.20;99.90
4763;DHT22;2395;50.738;7.122;2022-08-19T14:03:57;30.60;99.90
4763;DHT22;2395;50.738;7.122;2022-08-19T14:06:24;30.80;99.90
4763;DHT22;2395;50.738;7.122;2022-08-19T14:08:51;30.70;99.90
4763;DHT22;2395;50.738;7.122;2022-08-19T14:11:18;30.70;99.90
4763;DHT22;2395;50.738;7.122;2022-08-19T14:13:45;30.90;99.80
4763;DHT22;2395;50.738;7.122;2022-08-19T14:16:13;31.00;98.90
4763;DHT22;2395;50.738;7.122;2022-08-19T14:18:41;31.10;98.60
4763;DHT22;2395;50.738;7.122;2022-08-19T14:21:16;31.30;98.10
4763;DHT22;2395;50.738;7.122;2022-08-19T14:23:49;31.10;97.20
4763;DHT22;2395;50.738;7.122;2022-08-19T14:26:18;31.20;97.20
4763;DHT22;2395;50.738;7.122;2022-08-19T14:28:47;30.90;97.50
4763;DHT22;2395;50.738;7.122;2022-08-19T14:31:16;30.60;97.80
4763;DHT22;2395;50.738;7.122;2022-08-19T14:33:45;30.60;98.20
4763;DHT22;2395;50.738;7.122;2022-08-19T14:36:14;30.20;98.40
4763;DHT22;2395;50.738;7.122;2022-08-19T14:38:41;30.30;98.90
4763;DHT22;2395;50.738;7.122;2022-08-19T14:41:12;30.70;98.70
4763;DHT22;2395;50.738;7.122;2022-08-19T14:43:42;31.10;97.80
4763;DHT22;2395;50.738;7.122;2022-08-19T14:46:11;31.50;97.60
4763;DHT22;2395;50.738;7.122;2022-08-19T14:48:38;31.50;97.00
4763;DHT22;2395;50.738;7.122;2022-08-19T14:51:05;31.90;95.80
4763;DHT22;2395;50.738;7.122;2022-08-19T14:53:34;32.10;94.90
4763;DHT22;2395;50.738;7.122;2022-08-19T14:56:07;31.90;94.30
4763;DHT22;2395;50.738;7.122;2022-08-19T14:58:35;31.60;94.50
4763;DHT22;2395;50.738;7.122;2022-08-19T15:01:02;32.00;93.90
4763;DHT22;2395;50.738;7.122;2022-08-19T15:03:30;31.90;93.50
4763;DHT22;2395;50.738;7.122;2022-08-19T15:05:59;31.20;93.50
4763;DHT22;2395;50.738;7.122;2022-08-19T15:08:28;31.50;93.10
4763;DHT22;2395;50.738;7.122;2022-08-19T15:10:59;31.80;93.00
4763;DHT22;2395;50.738;7.122;2022-08-19T15:13:28;31.60;92.90
4763;DHT22;2395;50.738;7.122;2022-08-19T15:16:05;31.30;93.70
4763;DHT22;2395;50.738;7.122;2022-08-19T15:18:42;31.70;93.70
4763;DHT22;2395;50.738;7.122;2022-08-19T15:21:16;32.20;93.10
4763;DHT22;2395;50.738;7.122;2022-08-19T15:23:48;32.40;93.10
4763;DHT22;2395;50.738;7.122;2022-08-19T15:26:20;32.70;91.50
4763;DHT22;2395;50.738;7.122;2022-08-19T15:28:47;32.70;91.10
4763;DHT22;2395;50.738;7.122;2022-08-19T15:31:18;32.00;91.70
4763;DHT22;2395;50.738;7.122;2022-08-19T15:33:48;31.80;91.90
4763;DHT22;2395;50.738;7.122;2022-08-19T15:36:16;31.50;92.40
4763;DHT22;2395;50.738;7.122;2022-08-19T15:38:43;32.20;91.50
4763;DHT22;2395;50.738;7.122;2022-08-19T15:41:18;32.60;91.00
4763;DHT22;2395;50.738;7.122;2022-08-19T15:43:55;32.40;90.80
4763;DHT22;2395;50.738;7.122;2022-08-19T15:46:25;33.00;88.70
4763;DHT22;2395;50.738;7.122;2022-08-19T15:48:54;33.60;86.80
4763;DHT22;2395;50.738;7.122;2022-08-19T15:51:22;33.50;83.80
4763;DHT22;2395;50.738;7.122;2022-08-19T15:53:50;32.60;84.40
4763;DHT22;2395;50.738;7.122;2022-08-19T15:56:18;32.10;87.60
4763;DHT22;2395;50.738;7.122;2022-08-19T15:58:46;32.10;86.40
4763;DHT22;2395;50.738;7.122;2022-08-19T16:01:30;31.60;87.30
4763;DHT22;2395;50.738;7.122;2022-08-19T16:04:15;32.20;86.30
4763;DHT22;2395;50.738;7.122;2022-08-19T16:07:01;32.60;87.00
4763;DHT22;2395;50.738;7.122;2022-08-19T16:09:30;32.80;83.90
4763;DHT22;2395;50.738;7.122;2022-08-19T16:12:03;33.30;84.50
4763;DHT22;2395;50.738;7.122;2022-08-19T16:14:33;33.20;86.00
4763;DHT22;2395;50.738;7.122;2022-08-19T16:17:02;33.50;85.70
4763;DHT22;2395;50.738;7.122;2022-08-19T16:19:30;34.50;84.00